Accueil
METAR-TAF:

METAR-TAF

Aéroports :

La Paz, Mexique

latitude: 24-04N, longitude: 110-22W, altitude: 21 m

Observation

Le bulletin a été fait il y a 1 heure et 47 minutes, à 12:00 UTC
Vent 5 kt de sud/sud-est
Température 25°C
Humidité 79%
Pression 1012 hPa
Visibilité: 16.1 km
Ciel clair

METAR: MMLP 211200Z RTD 16005KT 10SM SKC 25/21 A2988 RMK SLP117 5//// 900 ISOL CI RTS

Heure: 07:47 (13:47 UTC)

Prévision

Le bulletin a été fait il y a 9 heures et 11 minutes, à 04:36 UTC
Prévision valable du 21 à 06 UTC au 22 à 06 UTC
Vent 5 kt de sud/sud-est
Visibilité: 10 km
Nuages épars à une hauteur de 10000 ft
A partir de 21 à 1800 UTC
Vent 10 kt de nord/nord-ouest
Visibilité: 10 km
Nuages épars à une hauteur de 4000 ft
Nuages épars à une hauteur de 20000 ft
A partir de 22 à 0200 UTC
Vent 5 kt de sud/sud-est
Visibilité: 10 km
Ciel clair

TAF: MMLP 210436Z 2106/2206 16005KT P6SM SCT100 FM211800 34010KT P6SM SCT040 SCT200 FM220200 16005KT P6SM SKC

Observations et prévisions météorologiques de plus de 4000 aéroports (messages METAR et TAF).

Les stations disponibles sont représentées par des disques jaunes et rouges sur la carte.

Passer la souris dessus pour voir le nom de la station.

Cliquer dessus pour voir les observations et prévisions météorologiques.

Pour changer de carte: cliquez sur les boutons verts avec une croix noire pour zoomer, sur le bouton vert avec un tiret pour effectuer un zoom arrière, ou sur les flèches vertes pour les cartes adjacentes.


METAR-TAF: